Time;durP1;ratioP1;P1;durP2;ratioP2;P2;SDS_P1;SDS_P2;PMS_P1;PMS_P2;Temp;Humidity;BMP_temperature;BMP_pressure;BME280_temperature;BME280_humidity;BME280_pressure;Samples;Min_cycle;Max_cycle;Signal;HPM_P1;HPM_P2
2022/03/01 00:01:45;;;;;;;43.22;18.30;;;0.80;99.90;;;;;;5113269;27;20051;-71
2022/03/01 00:04:11;;;;;;;42.92;18.95;;;0.80;99.90;;;;;;5112966;27;20375;-71
2022/03/01 00:06:36;;;;;;;41.15;18.38;;;0.80;99.90;;;;;;5110783;27;20108;-71
2022/03/01 00:09:03;;;;;;;44.50;20.02;;;0.70;99.90;;;;;;5111139;27;20108;-71
2022/03/01 00:11:29;;;;;;;40.42;17.85;;;0.70;99.90;;;;;;5096349;27;20392;-71
2022/03/01 00:13:55;;;;;;;44.05;18.35;;;0.70;99.90;;;;;;5112585;27;20045;-72
2022/03/01 00:16:20;;;;;;;43.83;18.83;;;0.70;99.90;;;;;;5113251;27;20039;-72
2022/03/01 00:18:47;;;;;;;41.42;18.55;;;0.60;99.90;;;;;;5112595;27;20080;-72
2022/03/01 00:21:12;;;;;;;39.00;18.20;;;0.60;99.90;;;;;;5109485;27;20036;-72
2022/03/01 00:23:38;;;;;;;39.28;18.15;;;0.60;99.90;;;;;;5093144;27;20467;-72
2022/03/01 00:26:04;;;;;;;42.10;18.58;;;0.60;99.90;;;;;;5111246;27;20039;-72
2022/03/01 00:28:29;;;;;;;37.45;17.58;;;0.60;99.90;;;;;;5112242;27;20049;-72
2022/03/01 00:30:55;;;;;;;39.00;17.60;;;0.60;99.90;;;;;;5111984;27;20516;-72
2022/03/01 00:33:21;;;;;;;42.95;18.67;;;0.60;99.90;;;;;;5112603;27;20397;-72
2022/03/01 00:35:47;;;;;;;39.50;17.63;;;0.60;99.90;;;;;;5112208;27;20031;-72
2022/03/01 00:38:12;;;;;;;36.03;17.40;;;0.60;99.90;;;;;;5095543;27;20039;-72
2022/03/01 00:40:38;;;;;;;41.13;17.88;;;0.60;99.90;;;;;;5110592;27;20070;-72
2022/03/01 00:43:04;;;;;;;41.97;19.35;;;0.60;99.90;;;;;;5112747;27;20039;-72
2022/03/01 00:45:29;;;;;;;42.58;18.55;;;0.50;99.90;;;;;;5112454;27;20073;-71
2022/03/01 00:47:55;;;;;;;39.20;17.58;;;0.50;99.90;;;;;;5112961;27;20031;-71
2022/03/01 00:50:20;;;;;;;38.63;17.67;;;0.50;99.90;;;;;;5110893;27;20186;-71
2022/03/01 00:52:46;;;;;;;36.83;17.30;;;0.50;99.90;;;;;;5110634;27;20103;-71
2022/03/01 00:55:11;;;;;;;39.38;17.65;;;0.50;99.90;;;;;;5111963;27;20508;-71
2022/03/01 00:57:37;;;;;;;36.70;18.55;;;0.50;99.90;;;;;;5112456;27;20031;-71
2022/03/01 01:00:05;;;;;;;41.45;17.08;;;0.50;99.90;;;;;;5108520;27;20046;-72
2022/03/01 01:02:31;;;;;;;37.13;16.95;;;0.40;99.90;;;;;;5111746;27;20053;-72
2022/03/01 01:04:56;;;;;;;38.33;18.40;;;0.40;99.90;;;;;;5111380;27;20027;-72
2022/03/01 01:07:22;;;;;;;41.97;17.90;;;0.40;99.90;;;;;;5094586;27;20509;-72
2022/03/01 01:09:47;;;;;;;37.45;16.80;;;0.40;99.90;;;;;;5111256;27;20126;-72
2022/03/01 01:12:13;;;;;;;43.22;17.83;;;0.40;99.90;;;;;;5108641;27;20039;-72
2022/03/01 01:14:38;;;;;;;41.00;17.42;;;0.40;99.90;;;;;;5111912;27;20482;-72
2022/03/01 01:17:04;;;;;;;41.47;17.55;;;0.40;99.90;;;;;;5110932;27;20039;-72
2022/03/01 01:19:30;;;;;;;39.40;17.58;;;0.40;99.90;;;;;;5110688;27;20049;-72
2022/03/01 01:24:40;;;;;;;40.33;17.23;;;0.30;99.90;;;;;;5111840;27;20050;-72
2022/03/01 01:27:05;;;;;;;42.90;17.83;;;0.30;99.90;;;;;;5111622;27;20063;-72
2022/03/01 01:29:31;;;;;;;44.97;17.17;;;0.30;99.90;;;;;;5094180;28;20188;-72
2022/03/01 01:31:56;;;;;;;40.80;16.60;;;0.30;99.90;;;;;;5112110;28;20084;-72
2022/03/01 01:34:22;;;;;;;38.95;18.15;;;0.30;99.90;;;;;;5111811;28;20501;-72
2022/03/01 01:36:47;;;;;;;40.90;17.40;;;0.20;99.90;;;;;;5110253;28;20038;-71
2022/03/01 01:39:13;;;;;;;40.75;17.27;;;0.20;99.90;;;;;;5095399;28;20051;-71
2022/03/01 01:41:38;;;;;;;37.67;17.00;;;0.20;99.90;;;;;;5107858;28;20042;-71
2022/03/01 01:44:05;;;;;;;41.20;17.02;;;0.20;99.90;;;;;;5111581;28;20031;-71
2022/03/01 01:46:31;;;;;;;43.13;17.35;;;0.20;99.90;;;;;;5109229;28;20095;-71
2022/03/01 01:48:56;;;;;;;41.08;18.13;;;0.20;99.90;;;;;;5110493;28;20039;-71
2022/03/01 01:51:24;;;;;;;39.15;17.70;;;0.20;99.90;;;;;;5111958;28;20039;-71
2022/03/01 01:53:50;;;;;;;40.65;17.90;;;0.20;99.90;;;;;;5111426;28;20035;-71
2022/03/01 01:56:15;;;;;;;40.50;18.70;;;0.20;99.90;;;;;;5111491;28;20444;-71
2022/03/01 01:58:41;;;;;;;36.83;16.88;;;0.20;99.90;;;;;;5110239;28;20042;-71
2022/03/01 02:01:07;;;;;;;42.50;18.42;;;0.20;99.90;;;;;;5111426;28;20482;-71
2022/03/01 02:03:32;;;;;;;41.35;17.38;;;0.20;99.90;;;;;;5112409;28;20087;-71
2022/03/01 02:05:58;;;;;;;45.22;18.38;;;0.20;99.90;;;;;;5112558;28;20066;-71
2022/03/01 02:08:31;;;;;;;42.60;18.00;;;0.20;99.90;;;;;;5108834;28;20473;-71
2022/03/01 02:10:57;;;;;;;38.55;16.67;;;0.20;99.90;;;;;;5105697;28;20108;-71
2022/03/01 02:13:23;;;;;;;38.50;16.63;;;0.20;99.90;;;;;;5110926;28;20039;-72
2022/03/01 02:15:49;;;;;;;39.75;17.30;;;0.20;99.90;;;;;;5110314;28;20494;-72
2022/03/01 02:18:16;;;;;;;40.00;17.85;;;0.20;99.90;;;;;;5111987;27;20292;-72
2022/03/01 02:20:41;;;;;;;35.85;16.08;;;0.20;99.90;;;;;;5114053;27;20042;-72
2022/03/01 02:23:07;;;;;;;41.30;16.40;;;0.20;99.90;;;;;;5114405;27;20481;-71
2022/03/01 02:25:33;;;;;;;34.85;17.00;;;0.30;99.90;;;;;;5113582;27;20039;-71
2022/03/01 02:27:59;;;;;;;40.10;17.85;;;0.20;99.90;;;;;;5115471;27;20519;-71
2022/03/01 02:30:24;;;;;;;36.75;16.77;;;0.20;99.90;;;;;;5115206;27;20045;-70
2022/03/01 02:32:51;;;;;;;40.58;18.10;;;0.20;99.90;;;;;;5114593;27;20027;-71
2022/03/01 02:35:17;;;;;;;37.70;17.17;;;0.20;99.90;;;;;;5115660;27;20034;-71
2022/03/01 02:37:43;;;;;;;38.15;16.75;;;0.20;99.90;;;;;;5114516;27;20493;-71
2022/03/01 02:40:10;;;;;;;39.90;17.30;;;0.20;99.90;;;;;;5115440;27;20054;-71
2022/03/01 02:42:36;;;;;;;38.67;17.02;;;0.20;99.90;;;;;;5114767;27;20114;-71
2022/03/01 02:45:04;;;;;;;37.47;17.13;;;0.20;99.90;;;;;;5097310;27;20511;-71
2022/03/01 02:47:30;;;;;;;36.47;17.13;;;0.20;99.90;;;;;;5113624;27;20397;-71
2022/03/01 02:49:55;;;;;;;38.33;16.88;;;0.20;99.90;;;;;;5113462;27;20043;-71
2022/03/01 02:52:21;;;;;;;35.53;16.15;;;0.30;99.90;;;;;;5096678;27;20092;-72
2022/03/01 02:54:47;;;;;;;34.22;16.05;;;0.30;99.90;;;;;;5112892;27;20122;-72
2022/03/01 02:57:12;;;;;;;38.85;17.05;;;0.20;99.90;;;;;;5096619;27;20038;-72
2022/03/01 02:59:38;;;;;;;41.38;17.63;;;0.30;99.90;;;;;;5111689;27;20156;-72
2022/03/01 03:02:04;;;;;;;42.13;17.08;;;0.30;99.90;;;;;;5110302;27;20766;-71
2022/03/01 03:04:30;;;;;;;38.85;16.60;;;0.30;99.90;;;;;;5114080;27;20291;-72
2022/03/01 03:06:56;;;;;;;36.40;16.88;;;0.30;99.90;;;;;;5097103;27;20031;-72
2022/03/01 03:09:21;;;;;;;40.92;17.55;;;0.30;99.90;;;;;;5097359;27;20092;-72
2022/03/01 03:11:47;;;;;;;38.55;17.15;;;0.30;99.90;;;;;;5113384;27;20042;-71
2022/03/01 03:14:12;;;;;;;39.20;16.98;;;0.30;99.90;;;;;;5114819;27;20051;-71
2022/03/01 03:16:38;;;;;;;38.00;16.73;;;0.30;99.90;;;;;;5110290;27;20505;-71
2022/03/01 03:19:04;;;;;;;36.35;16.15;;;0.30;99.90;;;;;;5115110;27;20122;-71
2022/03/01 03:21:29;;;;;;;39.72;17.02;;;0.30;99.90;;;;;;5115697;27;20123;-71
2022/03/01 03:23:55;;;;;;;37.20;16.55;;;0.30;99.90;;;;;;5112558;27;20042;-71
2022/03/01 03:26:20;;;;;;;42.20;18.05;;;0.40;99.90;;;;;;5089214;27;20035;-70
2022/03/01 03:28:46;;;;;;;34.65;16.30;;;0.40;99.90;;;;;;5114334;27;20037;-71
2022/03/01 03:31:12;;;;;;;37.33;17.35;;;0.40;99.90;;;;;;5098600;27;20056;-70
2022/03/01 03:33:38;;;;;;;37.08;17.10;;;0.40;99.90;;;;;;5115171;27;20047;-70
2022/03/01 03:36:05;;;;;;;40.42;17.73;;;0.40;99.90;;;;;;5115465;27;20046;-70
2022/03/01 03:38:30;;;;;;;37.50;16.25;;;0.40;99.90;;;;;;5096947;27;20393;-71
2022/03/01 03:40:56;;;;;;;37.00;16.63;;;0.40;99.90;;;;;;5094307;28;20122;-71
2022/03/01 03:43:21;;;;;;;39.83;17.20;;;0.50;99.90;;;;;;5113578;27;20043;-71
2022/03/01 03:45:47;;;;;;;41.25;17.15;;;0.50;99.90;;;;;;5114062;27;20138;-72
2022/03/01 03:48:13;;;;;;;38.97;17.63;;;0.50;99.90;;;;;;5114170;27;20035;-72
2022/03/01 03:50:38;;;;;;;39.83;17.67;;;0.50;99.90;;;;;;5114597;27;20035;-72
2022/03/01 03:53:04;;;;;;;39.95;17.48;;;0.60;99.90;;;;;;5107401;27;20110;-71
2022/03/01 03:55:29;;;;;;;40.35;17.63;;;0.60;99.90;;;;;;5115478;27;20546;-71
2022/03/01 03:57:55;;;;;;;39.60;17.83;;;0.60;99.90;;;;;;5114669;27;20418;-71
2022/03/01 04:00:21;;;;;;;39.42;17.48;;;0.60;99.90;;;;;;5097108;27;20047;-72
2022/03/01 04:02:50;;;;;;;38.38;17.50;;;0.70;99.90;;;;;;5114391;27;20038;-71
2022/03/01 04:05:16;;;;;;;41.78;17.90;;;0.70;99.90;;;;;;5097187;27;20190;-71
2022/03/01 04:07:43;;;;;;;38.80;16.92;;;0.70;99.90;;;;;;5097906;27;20039;-71
2022/03/01 04:10:10;;;;;;;40.60;17.40;;;0.70;99.90;;;;;;5114861;27;20042;-71
2022/03/01 04:12:36;;;;;;;37.92;17.15;;;0.70;99.90;;;;;;5096349;27;20039;-71
2022/03/01 04:15:03;;;;;;;44.38;18.40;;;0.60;99.90;;;;;;5114607;27;20043;-71
2022/03/01 04:17:28;;;;;;;42.20;18.17;;;0.60;99.90;;;;;;5097306;27;20042;-71
2022/03/01 04:19:54;;;;;;;41.50;18.00;;;0.60;99.90;;;;;;5095791;27;20477;-71
2022/03/01 04:22:20;;;;;;;42.03;18.10;;;0.60;99.90;;;;;;5114260;27;20123;-71
2022/03/01 04:24:45;;;;;;;38.05;17.08;;;0.60;99.90;;;;;;5112553;27;20046;-71
2022/03/01 04:27:11;;;;;;;42.75;18.10;;;0.60;99.90;;;;;;5106138;27;20429;-71
2022/03/01 04:29:36;;;;;;;40.83;17.38;;;0.60;99.90;;;;;;5096178;27;20050;-71
2022/03/01 04:32:03;;;;;;;38.83;18.08;;;0.60;99.90;;;;;;5096466;27;20533;-71
2022/03/01 04:34:29;;;;;;;40.10;17.90;;;0.60;99.90;;;;;;5113731;27;20050;-71
2022/03/01 04:36:55;;;;;;;41.72;18.17;;;0.60;99.90;;;;;;5114362;27;20027;-71
2022/03/01 04:39:20;;;;;;;43.20;18.55;;;0.60;99.90;;;;;;5112772;27;20049;-71
2022/03/01 04:41:46;;;;;;;43.60;18.50;;;0.60;99.90;;;;;;5113829;27;20078;-71
2022/03/01 04:44:12;;;;;;;42.67;17.70;;;0.60;99.90;;;;;;5114365;27;20130;-71
2022/03/01 04:46:38;;;;;;;42.17;17.70;;;0.60;99.90;;;;;;5114070;27;20042;-71
2022/03/01 04:49:03;;;;;;;42.88;17.95;;;0.70;99.90;;;;;;5112968;27;20043;-71
2022/03/01 04:51:29;;;;;;;44.38;18.55;;;0.70;99.90;;;;;;5114093;27;20450;-71
2022/03/01 04:53:55;;;;;;;41.97;18.58;;;0.70;99.90;;;;;;5114148;27;20030;-71
2022/03/01 04:56:21;;;;;;;39.55;18.05;;;0.70;99.90;;;;;;5113085;27;20035;-71
2022/03/01 04:58:47;;;;;;;42.25;19.00;;;0.70;99.90;;;;;;5113264;27;20397;-71
2022/03/01 05:01:12;;;;;;;43.85;17.92;;;0.70;99.90;;;;;;5117249;27;20050;-71
2022/03/01 05:03:38;;;;;;;40.53;18.55;;;0.70;99.90;;;;;;5097165;27;20035;-71
2022/03/01 05:06:03;;;;;;;42.47;18.85;;;0.70;99.90;;;;;;5114073;27;20038;-71
2022/03/01 05:08:30;;;;;;;46.38;18.58;;;0.80;99.90;;;;;;5131852;27;20035;-71
2022/03/01 05:11:00;;;;;;;44.85;18.55;;;0.80;99.90;;;;;;5113184;28;20047;-71
2022/03/01 05:13:26;;;;;;;45.40;19.08;;;0.80;99.90;;;;;;5113500;27;20047;-71
2022/03/01 05:15:52;;;;;;;44.63;19.33;;;0.80;99.90;;;;;;5112838;27;20027;-71
2022/03/01 05:18:18;;;;;;;39.38;18.25;;;0.80;99.90;;;;;;5113592;27;20061;-71
2022/03/01 05:20:43;;;;;;;40.72;18.17;;;0.80;99.90;;;;;;5096773;27;20049;-71
2022/03/01 05:23:09;;;;;;;41.30;18.33;;;0.80;99.90;;;;;;5112894;28;20037;-71
2022/03/01 05:25:34;;;;;;;47.28;19.15;;;0.80;99.90;;;;;;5112417;27;20477;-71
2022/03/01 05:28:00;;;;;;;42.97;18.38;;;0.80;99.90;;;;;;5113435;27;20039;-71
2022/03/01 05:30:26;;;;;;;47.15;19.42;;;0.80;99.90;;;;;;5111785;28;20452;-71
2022/03/01 05:32:53;;;;;;;45.80;19.60;;;0.80;99.90;;;;;;5113150;28;20080;-71
2022/03/01 05:35:21;;;;;;;46.30;18.83;;;0.90;99.90;;;;;;5113051;28;20439;-71
2022/03/01 05:37:49;;;;;;;42.63;18.35;;;0.80;99.90;;;;;;5112291;28;20046;-71
2022/03/01 05:40:16;;;;;;;47.10;19.58;;;0.80;99.90;;;;;;5111584;28;20043;-71
2022/03/01 05:42:43;;;;;;;47.47;19.15;;;0.80;99.90;;;;;;5096289;28;20122;-71
2022/03/01 05:45:09;;;;;;;46.65;20.00;;;0.80;99.90;;;;;;5095599;28;20470;-71
2022/03/01 05:47:34;;;;;;;45.42;19.45;;;0.80;99.90;;;;;;5113261;28;20129;-71
2022/03/01 05:50:00;;;;;;;45.17;18.98;;;0.80;99.90;;;;;;5108405;28;20127;-71
2022/03/01 05:52:25;;;;;;;45.22;18.75;;;0.80;99.90;;;;;;5131595;27;20134;-71
2022/03/01 05:54:51;;;;;;;45.55;19.58;;;0.70;99.90;;;;;;5115209;27;20027;-72
2022/03/01 05:57:17;;;;;;;49.30;19.75;;;0.70;99.90;;;;;;5116443;27;20406;-72
2022/03/01 05:59:43;;;;;;;49.25;20.45;;;0.70;99.90;;;;;;5116565;27;20409;-72
2022/03/01 06:02:08;;;;;;;46.60;19.65;;;0.60;99.90;;;;;;5099726;27;20130;-72
2022/03/01 06:04:34;;;;;;;44.08;19.20;;;0.70;99.90;;;;;;5115687;27;20039;-72
2022/03/01 06:06:59;;;;;;;46.42;19.88;;;0.60;99.90;;;;;;5116779;27;20122;-72
2022/03/01 06:09:25;;;;;;;48.97;19.73;;;0.60;99.90;;;;;;5116788;27;20126;-72
2022/03/01 06:11:51;;;;;;;44.67;19.60;;;0.60;99.90;;;;;;5115984;27;20442;-72
2022/03/01 06:14:16;;;;;;;52.70;18.63;;;0.60;99.90;;;;;;5116873;27;20039;-72
2022/03/01 06:16:44;;;;;;;48.05;20.75;;;0.60;99.90;;;;;;5116433;27;20117;-72
2022/03/01 06:19:10;;;;;;;53.80;21.27;;;0.60;99.90;;;;;;5115773;27;20497;-72
2022/03/01 06:21:36;;;;;;;50.45;20.38;;;0.60;99.90;;;;;;5115562;27;20512;-72
2022/03/01 06:24:04;;;;;;;46.53;19.95;;;0.60;99.90;;;;;;5113512;27;20039;-72
2022/03/01 06:26:29;;;;;;;48.58;19.90;;;0.70;99.90;;;;;;5111767;27;20077;-73
2022/03/01 06:28:55;;;;;;;46.80;20.50;;;0.60;99.90;;;;;;5114827;27;20068;-72
2022/03/01 06:31:21;;;;;;;48.95;20.20;;;0.70;99.90;;;;;;5112571;27;20039;-72
2022/03/01 06:33:46;;;;;;;48.08;19.85;;;0.70;99.90;;;;;;5116053;27;20023;-73
2022/03/01 06:36:12;;;;;;;54.05;21.10;;;0.70;99.90;;;;;;5115420;27;20027;-72
2022/03/01 06:38:38;;;;;;;51.05;20.75;;;0.80;99.90;;;;;;5114006;27;20042;-72
2022/03/01 06:41:04;;;;;;;49.92;20.65;;;0.80;99.90;;;;;;5098382;27;20031;-72
2022/03/01 06:43:29;;;;;;;47.28;19.83;;;0.90;99.90;;;;;;5115576;27;20482;-73
2022/03/01 06:45:55;;;;;;;46.20;19.88;;;0.90;99.90;;;;;;5115794;27;20042;-74
2022/03/01 06:48:21;;;;;;;47.33;21.60;;;1.00;99.90;;;;;;5115600;27;20391;-73
2022/03/01 06:50:46;;;;;;;51.90;21.25;;;1.00;99.90;;;;;;5115291;27;20039;-73
2022/03/01 06:53:13;;;;;;;52.33;20.55;;;1.10;99.90;;;;;;5097730;27;20047;-73
2022/03/01 06:55:42;;;;;;;46.95;21.02;;;1.10;99.90;;;;;;5115158;27;20035;-73
2022/03/01 06:58:09;;;;;;;48.08;20.60;;;1.20;99.90;;;;;;5115368;27;20035;-72
2022/03/01 07:00:34;;;;;;;48.28;21.35;;;1.20;99.90;;;;;;5114458;27;20461;-73
2022/03/01 07:03:00;;;;;;;49.28;21.17;;;1.30;99.90;;;;;;5114538;28;20095;-72
2022/03/01 07:05:26;;;;;;;47.95;21.80;;;1.30;99.90;;;;;;5112897;27;20038;-73
2022/03/01 07:07:51;;;;;;;51.70;21.13;;;1.40;99.90;;;;;;5097169;27;20040;-73
2022/03/01 07:10:17;;;;;;;53.85;21.83;;;1.50;99.90;;;;;;5094127;28;20044;-73
2022/03/01 07:12:44;;;;;;;49.63;21.27;;;1.50;99.90;;;;;;5108849;27;20039;-72
2022/03/01 07:15:10;;;;;;;49.17;21.98;;;1.60;99.90;;;;;;5114005;27;20050;-72
2022/03/01 07:17:35;;;;;;;52.45;22.75;;;1.70;99.90;;;;;;5098690;27;20035;-72
2022/03/01 07:20:02;;;;;;;53.80;22.17;;;1.70;99.90;;;;;;5093927;27;20043;-73
2022/03/01 07:22:27;;;;;;;49.75;20.77;;;1.80;99.90;;;;;;5097627;27;20096;-73
2022/03/01 07:24:53;;;;;;;50.63;21.50;;;1.90;99.90;;;;;;5098473;27;20431;-72
2022/03/01 07:27:18;;;;;;;52.35;22.55;;;1.90;99.90;;;;;;5099104;27;20046;-72
2022/03/01 07:29:44;;;;;;;52.45;21.42;;;2.00;99.90;;;;;;5114212;27;20039;-72
2022/03/01 07:32:09;;;;;;;58.80;22.30;;;2.10;99.90;;;;;;5114665;27;20094;-73
2022/03/01 07:34:36;;;;;;;52.35;22.23;;;2.20;99.90;;;;;;5114194;27;20035;-73
2022/03/01 07:37:02;;;;;;;54.20;22.48;;;2.20;99.90;;;;;;5114157;27;20043;-73
2022/03/01 07:39:28;;;;;;;51.85;21.90;;;2.20;99.90;;;;;;5112909;27;20417;-73
2022/03/01 07:41:54;;;;;;;54.42;22.88;;;2.30;99.90;;;;;;5108594;27;20035;-73
2022/03/01 07:44:19;;;;;;;52.65;22.80;;;2.30;99.90;;;;;;5111445;27;20075;-73
2022/03/01 07:46:46;;;;;;;53.85;22.35;;;2.40;99.90;;;;;;5113308;27;20046;-73
2022/03/01 07:49:11;;;;;;;53.92;23.65;;;2.40;99.90;;;;;;5112549;27;20045;-73
2022/03/01 07:51:37;;;;;;;55.65;22.80;;;2.40;99.90;;;;;;5113233;27;20125;-73
2022/03/01 07:54:04;;;;;;;54.60;23.45;;;2.50;99.90;;;;;;5112893;27;20035;-72
2022/03/01 07:56:30;;;;;;;57.08;23.67;;;2.50;99.90;;;;;;5113593;27;20046;-72
2022/03/01 07:58:56;;;;;;;57.95;23.67;;;2.50;99.90;;;;;;5113052;27;20047;-72
2022/03/01 08:01:22;;;;;;;64.45;23.75;;;2.60;99.90;;;;;;5113741;27;20039;-72
2022/03/01 08:03:48;;;;;;;56.47;23.48;;;2.60;99.90;;;;;;5113750;27;20081;-72
2022/03/01 08:06:14;;;;;;;61.30;23.80;;;2.60;99.90;;;;;;5096117;27;20390;-73
2022/03/01 08:08:40;;;;;;;56.80;24.23;;;2.60;99.90;;;;;;5109931;27;20122;-73
2022/03/01 08:11:05;;;;;;;59.40;24.20;;;2.70;99.90;;;;;;5113108;27;20534;-72
2022/03/01 08:13:32;;;;;;;57.88;24.45;;;2.70;99.90;;;;;;5111515;27;20039;-73
2022/03/01 08:15:58;;;;;;;60.78;24.52;;;2.80;99.90;;;;;;5111907;27;20040;-73
2022/03/01 08:18:23;;;;;;;63.08;24.67;;;2.80;99.90;;;;;;5113325;27;20039;-73
2022/03/01 08:20:49;;;;;;;61.75;24.95;;;2.90;99.90;;;;;;5111800;27;20194;-73
2022/03/01 08:23:15;;;;;;;63.40;25.83;;;2.90;99.90;;;;;;5112313;27;20111;-73
2022/03/01 08:25:40;;;;;;;56.00;24.25;;;3.00;99.90;;;;;;5101251;28;20051;-73
2022/03/01 08:28:06;;;;;;;65.43;24.60;;;3.10;99.90;;;;;;5107760;27;20118;-73
2022/03/01 08:30:31;;;;;;;63.50;25.23;;;3.20;99.90;;;;;;5110505;27;20043;-73
2022/03/01 08:32:57;;;;;;;59.38;25.80;;;3.30;99.90;;;;;;5112912;27;20466;-73
2022/03/01 08:35:23;;;;;;;65.88;26.08;;;3.40;99.90;;;;;;5092297;28;20093;-73
2022/03/01 08:37:51;;;;;;;59.22;25.90;;;3.50;99.90;;;;;;5107059;27;20397;-73
2022/03/01 08:40:19;;;;;;;62.92;25.13;;;3.60;99.90;;;;;;5112679;27;20046;-73
2022/03/01 08:42:45;;;;;;;62.22;25.95;;;3.70;99.90;;;;;;5113253;27;20067;-73
2022/03/01 08:45:11;;;;;;;63.30;26.38;;;3.90;99.90;;;;;;5112041;27;20485;-73
2022/03/01 08:47:37;;;;;;;70.40;26.98;;;4.00;99.90;;;;;;5115218;27;20050;-73
2022/03/01 08:50:04;;;;;;;67.18;27.23;;;4.10;99.90;;;;;;5108021;27;20054;-73
2022/03/01 08:52:29;;;;;;;65.93;28.60;;;4.20;99.90;;;;;;5108798;28;20482;-72
2022/03/01 08:54:55;;;;;;;67.93;27.83;;;4.20;99.90;;;;;;5092753;28;20039;-73
2022/03/01 08:57:20;;;;;;;66.28;27.20;;;4.30;99.90;;;;;;5092574;28;20101;-73
2022/03/01 08:59:46;;;;;;;74.63;28.60;;;4.40;99.90;;;;;;5092470;28;20134;-73
2022/03/01 09:02:11;;;;;;;68.97;28.55;;;4.50;99.90;;;;;;5109073;27;20043;-73
2022/03/01 09:04:37;;;;;;;71.35;28.42;;;4.60;99.90;;;;;;5113187;27;20066;-74
2022/03/01 09:07:04;;;;;;;75.25;28.35;;;4.70;99.90;;;;;;5112825;27;20043;-74
2022/03/01 09:09:32;;;;;;;67.68;28.35;;;4.80;99.90;;;;;;5094125;28;20039;-73
2022/03/01 09:11:59;;;;;;;70.22;28.63;;;4.90;99.90;;;;;;5109197;28;20027;-73
2022/03/01 09:14:24;;;;;;;72.70;29.33;;;5.00;99.90;;;;;;5092171;28;20067;-72
2022/03/01 09:16:51;;;;;;;73.90;28.30;;;5.20;99.90;;;;;;5091796;28;20078;-72
2022/03/01 09:19:16;;;;;;;75.18;28.50;;;5.30;99.90;;;;;;5074805;28;20104;-73
2022/03/01 09:21:42;;;;;;;71.50;28.73;;;5.40;99.90;;;;;;5092171;28;20478;-72
2022/03/01 09:24:09;;;;;;;70.50;28.38;;;5.50;99.90;;;;;;5105485;27;20051;-73
2022/03/01 09:26:34;;;;;;;73.43;28.40;;;5.70;99.90;;;;;;5112670;28;20085;-72
2022/03/01 09:29:00;;;;;;;71.32;29.27;;;5.80;99.90;;;;;;5110259;27;20047;-73
2022/03/01 09:31:26;;;;;;;73.68;29.02;;;5.90;99.90;;;;;;5112766;28;20062;-73
2022/03/01 09:33:51;;;;;;;74.80;29.63;;;6.10;99.90;;;;;;5111989;28;20229;-73
2022/03/01 09:36:17;;;;;;;72.47;29.15;;;6.10;99.90;;;;;;5112444;28;20038;-72
2022/03/01 09:38:43;;;;;;;69.07;29.15;;;6.10;99.90;;;;;;5099291;28;20044;-72
2022/03/01 09:41:11;;;;;;;76.85;29.30;;;6.10;99.90;;;;;;5112666;28;20046;-72
2022/03/01 09:43:38;;;;;;;80.50;30.52;;;6.20;99.90;;;;;;5110640;28;20493;-72
2022/03/01 09:46:05;;;;;;;70.68;29.40;;;6.20;99.90;;;;;;5110681;28;20094;-72
2022/03/01 09:48:30;;;;;;;79.72;30.15;;;6.20;99.90;;;;;;5110564;27;20038;-73
2022/03/01 09:51:00;;;;;;;77.18;29.65;;;6.20;99.90;;;;;;5107444;28;20027;-72
2022/03/01 09:53:26;;;;;;;76.20;30.10;;;6.20;99.90;;;;;;5110970;28;20110;-72
2022/03/01 09:55:53;;;;;;;76.93;30.48;;;6.30;99.90;;;;;;5112592;28;20079;-73
2022/03/01 09:58:18;;;;;;;74.93;30.52;;;6.40;99.90;;;;;;5095668;28;20044;-72
2022/03/01 10:00:45;;;;;;;74.75;31.05;;;6.40;99.90;;;;;;5112232;28;20035;-73
2022/03/01 10:03:15;;;;;;;70.28;30.17;;;6.50;99.90;;;;;;5095376;28;20042;-72
2022/03/01 10:05:42;;;;;;;78.20;29.98;;;6.50;99.90;;;;;;5112947;28;20027;-73
2022/03/01 10:08:10;;;;;;;78.13;29.80;;;6.60;99.90;;;;;;5112585;28;20039;-73
2022/03/01 10:10:45;;;;;;;76.85;29.60;;;6.70;99.90;;;;;;5094721;28;20310;-73
2022/03/01 10:13:13;;;;;;;81.97;30.73;;;6.80;99.90;;;;;;5092550;28;20116;-73
2022/03/01 10:15:39;;;;;;;73.20;29.40;;;6.90;99.90;;;;;;5109517;28;20054;-72
2022/03/01 10:18:10;;;;;;;78.38;30.05;;;7.00;99.90;;;;;;5075196;28;20122;-73
2022/03/01 10:20:36;;;;;;;77.93;30.33;;;7.10;99.90;;;;;;5091758;28;20047;-73
2022/03/01 10:23:02;;;;;;;76.88;30.45;;;7.30;99.90;;;;;;5092305;28;20040;-73
2022/03/01 10:25:27;;;;;;;71.88;28.88;;;7.40;99.90;;;;;;5092182;28;20039;-72
2022/03/01 10:27:54;;;;;;;72.57;29.85;;;7.60;99.90;;;;;;5092127;28;20047;-73
2022/03/01 10:30:35;;;;;;;69.30;29.42;;;7.80;99.90;;;;;;5074019;28;20040;-73
2022/03/01 10:33:11;;;;;;;75.57;30.10;;;8.10;99.90;;;;;;5092387;28;20043;-72
2022/03/01 10:35:38;;;;;;;72.97;28.88;;;8.30;99.90;;;;;;5112683;28;20031;-73
2022/03/01 10:38:05;;;;;;;70.85;29.15;;;8.40;99.90;;;;;;5112444;27;20127;-72
2022/03/01 10:40:32;;;;;;;66.28;28.40;;;8.50;99.90;;;;;;5098660;27;20478;-71
2022/03/01 10:43:05;;;;;;;67.32;28.00;;;8.50;99.90;;;;;;5099596;27;20043;-73
2022/03/01 10:45:50;;;;;;;67.63;27.90;;;8.60;99.90;;;;;;5112807;28;20044;-72
2022/03/01 10:48:28;;;;;;;64.82;27.38;;;8.60;99.90;;;;;;5112505;28;20063;-72
2022/03/01 10:51:08;;;;;;;69.72;28.20;;;8.70;99.90;;;;;;5111839;28;20100;-73
2022/03/01 10:53:52;;;;;;;66.07;26.65;;;8.60;99.90;;;;;;5095635;28;20406;-74
2022/03/01 10:56:18;;;;;;;67.00;28.08;;;8.70;99.90;;;;;;5095618;28;20495;-73
2022/03/01 10:58:44;;;;;;;67.53;28.45;;;8.70;99.90;;;;;;5094826;28;20082;-73
2022/03/01 11:01:11;;;;;;;65.22;27.67;;;8.70;99.90;;;;;;5103913;27;20370;-73
2022/03/01 11:03:37;;;;;;;70.57;28.60;;;8.80;99.90;;;;;;5115450;27;20046;-72
2022/03/01 11:06:04;;;;;;;70.00;27.77;;;8.80;99.90;;;;;;5115253;27;20043;-73
2022/03/01 11:08:41;;;;;;;69.60;27.42;;;8.80;99.90;;;;;;5115373;27;20100;-73
2022/03/01 11:11:09;;;;;;;68.38;26.80;;;8.80;99.90;;;;;;5106522;27;20042;-73
2022/03/01 11:13:40;;;;;;;72.80;28.15;;;9.00;99.90;;;;;;5114236;27;20397;-73
2022/03/01 11:16:39;;;;;;;67.38;28.27;;;9.00;99.90;;;;;;5097870;27;20620;-72
2022/03/01 11:19:27;;;;;;;69.28;28.35;;;9.10;99.90;;;;;;5103761;28;20052;-72
2022/03/01 11:21:53;;;;;;;68.90;28.38;;;9.10;99.90;;;;;;5102543;27;20055;-72
2022/03/01 11:24:21;;;;;;;69.97;28.08;;;9.20;99.90;;;;;;5116563;27;20038;-72
2022/03/01 11:26:47;;;;;;;66.05;29.42;;;9.20;99.90;;;;;;5112658;27;20031;-73
2022/03/01 11:29:16;;;;;;;68.25;29.45;;;9.30;99.90;;;;;;5112410;27;20042;-73
2022/03/01 11:31:54;;;;;;;72.93;30.10;;;9.30;99.90;;;;;;5097428;27;20406;-73
2022/03/01 11:34:23;;;;;;;64.70;28.58;;;9.40;99.90;;;;;;5114781;27;20603;-73
2022/03/01 11:36:52;;;;;;;90.85;46.08;;;9.40;93.30;;;;;;5114913;27;20027;-73
2022/03/01 11:39:27;;;;;;;141.98;72.35;;;9.40;95.10;;;;;;5113779;27;20500;-73
2022/03/01 11:42:03;;;;;;;78.40;33.00;;;9.40;99.90;;;;;;5115239;27;20050;-73
2022/03/01 11:44:35;;;;;;;69.15;29.90;;;9.40;99.10;;;;;;5096130;27;20043;-73
2022/03/01 11:47:03;;;;;;;70.03;28.55;;;9.30;99.10;;;;;;5114534;27;20045;-73
2022/03/01 11:49:34;;;;;;;70.68;29.88;;;9.30;97.70;;;;;;5113768;27;20043;-73
2022/03/01 11:52:00;;;;;;;71.03;29.08;;;9.30;99.90;;;;;;5114498;27;20070;-73
2022/03/01 11:54:29;;;;;;;70.28;29.02;;;9.20;99.90;;;;;;5113984;27;20077;-74
2022/03/01 11:56:57;;;;;;;65.82;28.58;;;9.10;99.90;;;;;;5115067;27;20035;-73
2022/03/01 11:59:23;;;;;;;68.20;29.10;;;9.20;99.90;;;;;;5113134;27;20043;-73
2022/03/01 12:01:54;;;;;;;66.18;28.73;;;9.10;99.90;;;;;;5101789;27;20565;-74
2022/03/01 12:04:22;;;;;;;66.20;28.67;;;9.00;99.90;;;;;;5096808;27;20042;-73
2022/03/01 12:06:55;;;;;;;67.60;28.48;;;8.90;99.90;;;;;;5114369;27;20458;-73
2022/03/01 12:09:25;;;;;;;64.57;28.50;;;8.90;99.90;;;;;;5112664;27;20035;-73
2022/03/01 12:12:03;;;;;;;65.82;28.08;;;8.80;99.90;;;;;;5113685;27;20070;-73
2022/03/01 12:14:29;;;;;;;69.60;29.15;;;8.80;99.90;;;;;;5114224;27;20035;-75
2022/03/01 12:16:55;;;;;;;64.90;28.75;;;8.70;99.90;;;;;;5103719;27;20035;-72
2022/03/01 12:19:22;;;;;;;64.40;29.10;;;8.70;99.90;;;;;;5113227;27;20375;-73
2022/03/01 12:21:50;;;;;;;70.25;29.27;;;8.50;99.90;;;;;;5113642;27;20062;-72
2022/03/01 12:24:17;;;;;;;67.13;28.38;;;8.60;99.90;;;;;;5112210;27;20088;-73
2022/03/01 12:26:55;;;;;;;65.65;27.10;;;8.50;99.90;;;;;;5114521;27;20566;-73
2022/03/01 12:29:25;;;;;;;65.57;27.88;;;8.60;99.90;;;;;;5111246;27;20034;-73
2022/03/01 12:32:04;;;;;;;65.05;27.77;;;8.50;99.90;;;;;;5096847;27;20035;-73
2022/03/01 12:34:32;;;;;;;67.00;27.95;;;8.50;99.90;;;;;;5112979;27;20035;-73
2022/03/01 12:37:03;;;;;;;60.97;27.85;;;8.50;99.90;;;;;;5113883;27;20082;-72